Pinnacle — WCY8978 — position and weather

sailwx.info

Track history (hours):
 
Tides and Currents Weather Stations Pressure Air Temp Water Temp Dewpoint Dewpoint Depression Visibility Wind Speed Wind Dir Waves Ship Positions

Pinnacle

Owner: FV PINNACLE INC, SNOHOMISH, WA. More information available from US FCC via Universal Licensing System and Coast Guard Vessel Documentation Center.

Last reported at 2017-Oct-06 06:39 UTC. Time now 2017-Oct-19 16:54 UTC.
Position N 49°37' W 129°46'.
Warning: this ship's position is 13 days out of date.

Length 47 m; draft 16 m.

MMSI: 303072000.

Date/timePositionNaut miles runAvg speedWind from/ knotsBaromVisibWave heightAir tempDewpointWater temp
2017-Oct-06 06:39N 49°37' W 129°46'1 9.5
2017-Oct-06 06:31N 49°36' W 129°44'6 9.6
2017-Oct-06 05:51N 49°33' W 129°36'5 9.9
2017-Oct-06 05:19N 49°31' W 129°28'9 9.6
2017-Oct-06 04:21N 49°27' W 129°15'13 9.7
2017-Oct-06 02:58N 49°22' W 128°57'29 9.8
2017-Oct-05 23:59N 49°09' W 128°17'510.1
2017-Oct-05 23:30N 49°07' W 128°10'5 9.8
2017-Oct-05 23:00N 49°04' W 128°03'5 9.9
2017-Oct-05 22:30N 49°02' W 127°56'5 9.8
2017-Oct-05 22:00N 49°00' W 127°50'510.0
2017-Oct-05 21:31N 48°58' W 127°43'5 9.9
2017-Oct-05 21:00N 48°56' W 127°36'5 9.9
2017-Oct-05 20:30N 48°53' W 127°30'510.0
2017-Oct-05 20:00N 48°51' W 127°23'510.2
2017-Oct-05 19:29N 48°49' W 127°15'610.2
2017-Oct-05 18:55N 48°46' W 127°08'410.2
2017-Oct-05 18:30N 48°44' W 127°02'510.1
2017-Oct-05 18:01N 48°42' W 126°55'510.0
2017-Oct-05 17:31N 48°40' W 126°48'5 9.8
2017-Oct-05 17:00N 48°37' W 126°42'15 9.7
2017-Oct-05 15:31N 48°32' W 126°21'5 9.5
2017-Oct-05 15:00N 48°32' W 126°14'5 9.6
2017-Oct-05 14:31N 48°32' W 126°07'5 9.8
2017-Oct-05 14:00N 48°32' W 125°60'510.3
2017-Oct-05 13:31N 48°32' W 125°52'510.4
2017-Oct-05 13:00N 48°32' W 125°44'510.0
2017-Oct-05 12:30N 48°31' W 125°36'510.3
2017-Oct-05 12:00N 48°31' W 125°29'510.1
2017-Oct-05 11:30N 48°31' W 125°21'5 9.9
2017-Oct-05 11:00N 48°31' W 125°14'5 9.9
2017-Oct-05 10:30N 48°31' W 125°06'5 9.7
2017-Oct-05 10:00N 48°31' W 124°59'510.0
2017-Oct-05 09:30N 48°31' W 124°51'510.7
2017-Oct-05 09:00N 48°30' W 124°43'510.4
2017-Oct-05 08:30N 48°29' W 124°36'510.4
2017-Oct-05 08:00N 48°27' W 124°28'510.2
2017-Oct-05 07:30N 48°25' W 124°21'510.5
2017-Oct-05 07:00N 48°23' W 124°14'510.6
2017-Oct-05 06:30N 48°21' W 124°07'510.8
2017-Oct-05 06:00N 48°19' W 123°59'611.3
2017-Oct-05 05:30N 48°18' W 123°51'612.1
2017-Oct-05 05:00N 48°17' W 123°42'613.1
2017-Oct-05 04:30N 48°16' W 123°32'612.0
2017-Oct-05 04:00N 48°15' W 123°23'612.4
2017-Oct-05 03:30N 48°14' W 123°14'611.5
2017-Oct-05 02:59N 48°13' W 123°05'611.4
2017-Oct-05 02:30N 48°13' W 122°57'612.0
2017-Oct-05 01:58N 48°12' W 122°48'612.4
2017-Oct-05 01:28N 48°08' W 122°40'510.3
2017-Oct-05 01:00N 48°04' W 122°38'510.6
2017-Oct-05 00:30N 47°59' W 122°35'510.3
2017-Oct-05 00:00N 47°55' W 122°29'510.1
2017-Oct-04 23:30N 47°50' W 122°27'5 9.9
2017-Oct-04 23:00N 47°46' W 122°26'4 9.0
2017-Oct-04 22:30N 47°41' W 122°25'2 3.1
2017-Oct-04 22:00N 47°40' W 122°24'0 0.5
2017-Oct-04 21:30N 47°40' W 122°23'0 0.9
2017-Oct-04 21:00N 47°39' W 122°23'0 0.0
2017-Oct-04 20:30N 47°39' W 122°23'0 0.0
2017-Oct-04 20:00N 47°39' W 122°23'0 0.0
2017-Oct-04 19:30N 47°39' W 122°23'0 0.0
2017-Oct-04 19:00N 47°39' W 122°23'0 0.0
2017-Oct-04 18:30N 47°39' W 122°23'0 0.0
2017-Oct-04 18:00N 47°39' W 122°23'0 0.0
2017-Oct-04 17:30N 47°39' W 122°23'0 0.0
2017-Oct-04 17:00N 47°39' W 122°23'0 0.0
2017-Oct-04 16:30N 47°39' W 122°23'0 0.0
2017-Oct-04 16:00N 47°39' W 122°23'0 0.0
2017-Oct-04 15:30N 47°39' W 122°23'0 0.0
2017-Oct-04 15:00N 47°39' W 122°23'0 0.0
2017-Oct-04 14:30N 47°39' W 122°23'0 0.0
2017-Oct-04 14:00N 47°39' W 122°23'0 0.0
2017-Oct-04 13:30N 47°39' W 122°23'0 0.0
2017-Oct-04 13:00N 47°39' W 122°23'0 0.0
2017-Oct-04 12:30N 47°39' W 122°23'0 0.0
2017-Oct-04 12:00N 47°39' W 122°23'0 0.0
2017-Oct-04 11:30N 47°39' W 122°23'0 0.0
2017-Oct-04 11:00N 47°39' W 122°23'0 0.0
2017-Oct-04 10:30N 47°39' W 122°23'0 0.0
2017-Oct-04 10:00N 47°39' W 122°23'0 0.0
2017-Oct-04 09:30N 47°39' W 122°23'0 0.0
2017-Oct-04 09:00N 47°39' W 122°23'0 0.0
2017-Oct-04 08:30N 47°39' W 122°23'0 0.0
2017-Oct-04 08:00N 47°39' W 122°23'0 0.0
2017-Oct-04 07:30N 47°39' W 122°23'0 0.0
2017-Oct-04 07:00N 47°39' W 122°23'0 0.0
2017-Oct-04 06:30N 47°39' W 122°23'0 0.0
2017-Oct-04 06:00N 47°39' W 122°23'0 0.0
2017-Oct-04 05:30N 47°39' W 122°23'0 0.0
2017-Oct-04 05:00N 47°39' W 122°23'0 0.0
2017-Oct-04 04:30N 47°39' W 122°23'0 0.0
2017-Oct-04 04:00N 47°39' W 122°23'0 0.0
2017-Oct-04 03:30N 47°39' W 122°23'0 0.0
2017-Oct-04 03:00N 47°39' W 122°23'0 0.0
2017-Oct-04 02:30N 47°39' W 122°23'0 0.0
2017-Oct-04 02:00N 47°39' W 122°23'0 0.0
2017-Oct-04 01:30N 47°39' W 122°23'0 0.0
2017-Oct-04 01:00N 47°39' W 122°23'0 0.0
2017-Oct-04 00:30N 47°39' W 122°23'0 0.0
2017-Oct-04 00:00N 47°39' W 122°23'0 0.0
2017-Oct-03 23:30N 47°39' W 122°23'0 0.0
2017-Oct-03 23:00N 47°39' W 122°23'0 0.0
2017-Oct-03 22:30N 47°39' W 122°23'0 0.0
2017-Oct-03 22:00N 47°39' W 122°23'0 0.0
2017-Oct-03 21:30N 47°39' W 122°23'0 0.0
2017-Oct-03 21:00N 47°39' W 122°23'0 0.0
2017-Oct-03 20:30N 47°39' W 122°23'0 0.0
2017-Oct-03 20:00N 47°39' W 122°23'0 0.0
2017-Oct-03 19:30N 47°39' W 122°23'0 0.0
2017-Oct-03 19:00N 47°39' W 122°23'0 0.0
2017-Oct-03 18:30N 47°39' W 122°23'0 0.0
2017-Oct-03 18:00N 47°39' W 122°23'0 0.0
2017-Oct-03 17:30N 47°39' W 122°23'0 0.0
2017-Oct-03 17:00N 47°39' W 122°23'0 0.0
2017-Oct-03 16:30N 47°39' W 122°23'0 0.0
2017-Oct-03 16:00N 47°39' W 122°23'0 0.0
2017-Oct-03 15:30N 47°39' W 122°23'0 0.0
2017-Oct-03 15:00N 47°39' W 122°23'0 0.0
2017-Oct-03 14:01N 47°39' W 122°23'0 0.0
2017-Oct-03 13:30N 47°39' W 122°23'0 0.0
2017-Oct-03 13:00N 47°39' W 122°23'0 0.0
2017-Oct-03 12:30N 47°39' W 122°23'0 0.0
2017-Oct-03 12:00N 47°39' W 122°23'0 0.0
2017-Oct-03 11:30N 47°39' W 122°23'0 0.0
2017-Oct-03 11:00N 47°39' W 122°23'0 0.0
2017-Oct-03 10:30N 47°39' W 122°23'0 0.0
2017-Oct-03 10:00N 47°39' W 122°23'0 0.0
2017-Oct-03 09:30N 47°39' W 122°23'0 0.0
2017-Oct-03 09:00N 47°39' W 122°23'0 0.0
2017-Oct-03 08:30N 47°39' W 122°23'0 0.0
2017-Oct-03 08:00N 47°39' W 122°23'0 0.0
2017-Oct-03 07:30N 47°39' W 122°23'0 0.0
2017-Oct-03 07:00N 47°39' W 122°23'0 0.0
2017-Oct-03 06:30N 47°39' W 122°23'0 0.0
2017-Oct-03 06:00N 47°39' W 122°23'0 0.0
2017-Oct-03 05:30N 47°39' W 122°23'0 0.0
2017-Oct-03 05:00N 47°39' W 122°23'0 0.0
2017-Oct-03 04:30N 47°39' W 122°23'0 0.0
2017-Oct-03 04:00N 47°39' W 122°23'0 0.0
2017-Oct-03 03:30N 47°39' W 122°23'0 0.0
2017-Oct-03 03:00N 47°39' W 122°23'0 0.0
2017-Oct-03 02:30N 47°39' W 122°23'0 0.0
2017-Oct-03 02:00N 47°39' W 122°23'0 0.0
2017-Oct-03 01:30N 47°39' W 122°23'0 0.0
2017-Oct-03 01:00N 47°39' W 122°23'0 0.0
2017-Oct-03 00:30N 47°39' W 122°23'0 0.0
2017-Oct-03 00:00N 47°39' W 122°23'0 0.0
2017-Oct-02 23:30N 47°39' W 122°23'0 0.0
2017-Oct-02 23:00N 47°39' W 122°23'0 0.0
2017-Oct-02 22:30N 47°39' W 122°23'0 0.0
2017-Oct-02 22:00N 47°39' W 122°23'0 0.0
2017-Oct-02 21:30N 47°39' W 122°23'0 0.0
2017-Oct-02 21:00N 47°39' W 122°23'0 0.0
2017-Oct-02 20:30N 47°39' W 122°23'0 0.0
2017-Oct-02 20:00N 47°39' W 122°23'0 0.0
2017-Oct-02 19:30N 47°39' W 122°23'0 0.0
2017-Oct-02 19:00N 47°39' W 122°23'0 0.0
2017-Oct-02 18:30N 47°39' W 122°23'0 0.0
2017-Oct-02 18:00N 47°39' W 122°23'0 0.0
2017-Oct-02 17:30N 47°39' W 122°23'0 0.0
2017-Oct-02 17:00N 47°39' W 122°23'0 0.0
2017-Oct-02 16:30N 47°39' W 122°23'0 0.0
2017-Oct-02 16:00N 47°39' W 122°23'0 0.0
2017-Oct-02 15:30N 47°39' W 122°23'0 0.4
2017-Oct-02 15:00N 47°40' W 122°23'1 1.0
2017-Oct-02 14:30N 47°40' W 122°23'0 0.0
2017-Oct-02 14:00N 47°40' W 122°23'0 0.0
2017-Oct-02 13:30N 47°40' W 122°23'0 0.0
2017-Oct-02 13:00N 47°40' W 122°23'0 0.0
2017-Oct-02 12:30N 47°40' W 122°23'0 0.0
2017-Oct-02 12:00N 47°40' W 122°23'0 0.0
2017-Oct-02 11:30N 47°40' W 122°23'0 0.0
2017-Oct-02 11:00N 47°40' W 122°23'0 0.0
2017-Oct-02 10:30N 47°40' W 122°23'0 0.0
2017-Oct-02 10:00N 47°40' W 122°23'0 0.0
2017-Oct-02 09:30N 47°40' W 122°23'0 0.0
2017-Oct-02 09:00N 47°40' W 122°23'0 0.0
2017-Oct-02 08:30N 47°40' W 122°23'0 0.0
2017-Oct-02 08:00N 47°40' W 122°23'0 0.0
2017-Oct-02 07:30N 47°40' W 122°23'0 0.0
2017-Oct-02 07:00N 47°40' W 122°23'0 0.0
2017-Oct-02 06:30N 47°40' W 122°23'0 0.0
2017-Oct-02 06:00N 47°40' W 122°23'0 0.0
2017-Oct-02 05:30N 47°40' W 122°23'0 0.0
2017-Oct-02 05:00N 47°40' W 122°23'0 0.0
2017-Oct-02 04:30N 47°40' W 122°23'0 0.0
2017-Oct-02 04:00N 47°40' W 122°23'0 0.0
2017-Oct-02 03:30N 47°40' W 122°23'0 0.0
2017-Oct-02 03:00N 47°40' W 122°23'0 0.0
2017-Oct-02 02:30N 47°40' W 122°23'0 0.0
2017-Oct-02 02:00N 47°40' W 122°23'0 0.0
2017-Oct-02 01:30N 47°40' W 122°23'0 0.0
2017-Oct-02 01:00N 47°40' W 122°23'0 0.0
2017-Oct-02 00:30N 47°40' W 122°23'0 0.0
2017-Oct-02 00:00N 47°40' W 122°23'0 0.0
2017-Oct-01 23:30N 47°40' W 122°23'0 0.0
2017-Oct-01 23:00N 47°40' W 122°23'0 0.0
2017-Oct-01 22:30N 47°40' W 122°23'0 0.0
2017-Oct-01 22:00N 47°40' W 122°23'0 0.0
2017-Oct-01 21:30N 47°40' W 122°23'0 0.0
2017-Oct-01 21:00N 47°40' W 122°23'0 0.0
2017-Oct-01 20:30N 47°40' W 122°23'0 0.0
2017-Oct-01 20:00N 47°40' W 122°23'0 0.0
2017-Oct-01 19:30N 47°40' W 122°23'0 0.0
2017-Oct-01 19:00N 47°40' W 122°23'0 0.0
2017-Oct-01 18:30N 47°40' W 122°23'0 0.0
2017-Oct-01 18:00N 47°40' W 122°23'0 0.0
2017-Oct-01 17:30N 47°40' W 122°23'0 0.0
2017-Oct-01 17:00N 47°40' W 122°23'0 0.0
2017-Oct-01 16:30N 47°40' W 122°23'0 0.0
2017-Oct-01 16:00N 47°40' W 122°23'0 0.0
2017-Oct-01 15:30N 47°40' W 122°23'0 0.0
2017-Oct-01 15:00N 47°40' W 122°23'0 0.0
2017-Oct-01 14:30N 47°40' W 122°23'0 0.0
2017-Oct-01 14:00N 47°40' W 122°23'0 0.0
2017-Oct-01 13:30N 47°40' W 122°23'0 0.0
2017-Oct-01 13:00N 47°40' W 122°23'0 0.0
2017-Oct-01 12:30N 47°40' W 122°23'0 0.0
2017-Oct-01 12:00N 47°40' W 122°23'0 0.0
2017-Oct-01 11:30N 47°40' W 122°23'0 0.0
2017-Oct-01 11:00N 47°40' W 122°23'0 0.0
2017-Oct-01 10:30N 47°40' W 122°23'0 0.0
2017-Oct-01 10:00N 47°40' W 122°23'0 0.0
2017-Oct-01 09:30N 47°40' W 122°23'0 0.0
2017-Oct-01 09:00N 47°40' W 122°23'0 0.0
2017-Oct-01 08:30N 47°40' W 122°23'0 0.0
2017-Oct-01 08:00N 47°40' W 122°23'0 0.0
2017-Oct-01 07:30N 47°40' W 122°23'0 0.0
2017-Oct-01 07:00N 47°40' W 122°23'0 0.0
2017-Oct-01 06:30N 47°40' W 122°23'0 0.0
2017-Oct-01 06:00N 47°40' W 122°23'0 0.0
2017-Oct-01 05:30N 47°40' W 122°23'0 0.0
2017-Oct-01 05:00N 47°40' W 122°23'0 0.0
2017-Oct-01 04:30N 47°40' W 122°23'0 0.0
2017-Oct-01 04:00N 47°40' W 122°23'0 0.0
2017-Oct-01 03:30N 47°40' W 122°23'0 0.0
2017-Oct-01 03:00N 47°40' W 122°23'0 0.0
2017-Sep-30 02:00N 47°40' W 122°23'0 0.0
2017-Sep-30 01:30N 47°40' W 122°23'0 0.0
2017-Sep-30 01:00N 47°40' W 122°23'0 0.0
2017-Sep-30 00:30N 47°40' W 122°23'0 0.0
2017-Sep-30 00:00N 47°40' W 122°23'0 0.0
2017-Sep-29 23:30N 47°40' W 122°23'0 0.0
2017-Sep-29 23:00N 47°40' W 122°23'0 0.0
2017-Sep-29 22:30N 47°40' W 122°23'0 0.0
2017-Sep-29 22:00N 47°40' W 122°23'0 0.0
2017-Sep-29 21:30N 47°40' W 122°23'0 0.0
2017-Sep-29 21:00N 47°40' W 122°23'0 0.0
2017-Sep-29 20:30N 47°40' W 122°23'0 0.0
2017-Sep-29 20:00N 47°40' W 122°23'0 0.0
2017-Sep-29 19:30N 47°40' W 122°23'0 0.0
2017-Sep-29 19:00N 47°40' W 122°23'0 0.0
2017-Sep-29 18:30N 47°40' W 122°23'0 0.0
2017-Sep-29 18:01N 47°40' W 122°23'0 0.0
2017-Sep-29 17:30N 47°40' W 122°23'0 0.0
2017-Sep-29 17:00N 47°40' W 122°23'0 0.0
2017-Sep-29 16:30N 47°40' W 122°23'0 0.0
2017-Sep-29 16:00N 47°40' W 122°23'0 0.0
2017-Sep-29 15:30N 47°40' W 122°23'0 0.0
2017-Sep-29 15:00N 47°40' W 122°23'0 0.0
2017-Sep-29 14:30N 47°40' W 122°23'0 0.0
2017-Sep-29 14:00N 47°40' W 122°23'0 0.0
2017-Sep-29 13:30N 47°40' W 122°23'0 0.0
2017-Sep-29 13:00N 47°40' W 122°23'0 0.0
2017-Sep-29 12:30N 47°40' W 122°23'0 0.0
2017-Sep-29 12:00N 47°40' W 122°23'0 0.0
2017-Sep-29 11:30N 47°40' W 122°23'0 0.0
2017-Sep-29 11:00N 47°40' W 122°23'0 0.0
2017-Sep-29 10:30N 47°40' W 122°23'0 0.0
2017-Sep-29 10:00N 47°40' W 122°23'0 0.0
2017-Sep-29 09:30N 47°40' W 122°23'0 0.0
2017-Sep-29 09:00N 47°40' W 122°23'0 0.0
2017-Sep-29 08:30N 47°40' W 122°23'0 0.0
2017-Sep-29 08:00N 47°40' W 122°23'0 0.0
2017-Sep-29 07:30N 47°40' W 122°23'0 0.0
2017-Sep-29 07:00N 47°40' W 122°23'0 0.0
2017-Sep-29 06:30N 47°40' W 122°23'0 0.0
2017-Sep-29 06:00N 47°40' W 122°23'0 0.0
2017-Sep-29 05:30N 47°40' W 122°23'0 0.0
2017-Sep-29 05:00N 47°40' W 122°23'0 0.0
2017-Sep-29 04:30N 47°40' W 122°23'0 0.0
2017-Sep-29 04:00N 47°40' W 122°23'0 0.0
2017-Sep-29 03:30N 47°40' W 122°23'0 0.0
2017-Sep-29 03:00N 47°40' W 122°23'0 0.0
2017-Sep-29 02:30N 47°40' W 122°23'0 0.0
2017-Sep-29 02:00N 47°40' W 122°23'0 0.0
2017-Sep-29 01:30N 47°40' W 122°23'0 0.0
2017-Sep-29 01:00N 47°40' W 122°23'0 0.0
2017-Sep-29 00:30N 47°40' W 122°23'0 0.0
2017-Sep-29 00:00N 47°40' W 122°23'0 0.0
2017-Sep-28 23:30N 47°40' W 122°23'0 0.0
2017-Sep-28 23:00N 47°40' W 122°23'0 0.0
2017-Sep-28 22:30N 47°40' W 122°23'0 0.0
2017-Sep-28 22:00N 47°40' W 122°23'0 0.1
2017-Sep-28 21:30N 47°40' W 122°23'0 0.0
2017-Sep-28 21:00N 47°40' W 122°23'0 0.0
2017-Sep-28 20:30N 47°40' W 122°23'0 0.0
2017-Sep-28 20:00N 47°40' W 122°23'0 0.0
2017-Sep-28 19:30N 47°40' W 122°23'0 0.0
2017-Sep-28 19:00N 47°40' W 122°23'0 0.0
2017-Sep-28 18:30N 47°40' W 122°23'0 0.0
2017-Sep-28 18:00N 47°40' W 122°23'0 0.0
2017-Sep-28 17:30N 47°40' W 122°23'0 0.0
2017-Sep-28 17:00N 47°40' W 122°23'0 0.0
2017-Sep-28 16:30N 47°40' W 122°23'0 0.0
2017-Sep-28 16:01N 47°40' W 122°23'0 0.0
2017-Sep-28 15:30N 47°40' W 122°23'0 0.0
2017-Sep-28 15:00N 47°40' W 122°23'0 0.0
2017-Sep-28 14:30N 47°40' W 122°23'0 0.0
2017-Sep-28 14:00N 47°40' W 122°23'0 0.0
2017-Sep-28 13:30N 47°40' W 122°23'0 0.0
2017-Sep-28 13:00N 47°40' W 122°23'0 0.0
2017-Sep-28 12:30N 47°40' W 122°23'0 0.0
2017-Sep-28 12:00N 47°40' W 122°23'0 0.0
2017-Sep-28 11:30N 47°40' W 122°23'0 0.0
2017-Sep-28 11:00N 47°40' W 122°23'0 0.0
2017-Sep-28 10:30N 47°40' W 122°23'0 0.0
2017-Sep-28 10:00N 47°40' W 122°23'0 0.0
2017-Sep-28 09:30N 47°40' W 122°23'0 0.0
2017-Sep-28 09:00N 47°40' W 122°23'0 0.0
2017-Sep-28 08:30N 47°40' W 122°23'0 0.0
2017-Sep-28 08:00N 47°40' W 122°23'0 0.0
2017-Sep-28 07:30N 47°40' W 122°23'0 0.0
2017-Sep-28 07:00N 47°40' W 122°23'0 0.0
2017-Sep-28 06:30N 47°40' W 122°23'0 0.0
2017-Sep-28 06:00N 47°40' W 122°23'0 0.0
2017-Sep-28 05:30N 47°40' W 122°23'0 0.0
2017-Sep-28 05:00N 47°40' W 122°23'0 0.0
2017-Sep-28 04:30N 47°40' W 122°23'0 0.0
2017-Sep-28 04:00N 47°40' W 122°23'0 0.0
2017-Sep-28 03:30N 47°40' W 122°23'0 0.0
2017-Sep-28 03:00N 47°40' W 122°23'0 0.0
2017-Sep-28 02:30N 47°40' W 122°23'0 0.0
2017-Sep-28 02:00N 47°40' W 122°23'0 0.0
2017-Sep-28 01:30N 47°40' W 122°23'0 0.0
2017-Sep-28 01:00N 47°40' W 122°23'0 0.0
2017-Sep-28 00:30N 47°40' W 122°23'0 0.0
2017-Sep-28 00:00N 47°40' W 122°23'0 0.0
2017-Sep-27 23:30N 47°40' W 122°23'0 0.0
2017-Sep-27 23:00N 47°40' W 122°23'0 0.0
2017-Sep-27 22:30N 47°40' W 122°23'0 0.1
2017-Sep-27 22:00N 47°40' W 122°23'0 0.1
2017-Sep-27 21:30N 47°40' W 122°23'0 0.0
2017-Sep-27 21:00N 47°40' W 122°23'0 0.0
2017-Sep-27 20:30N 47°40' W 122°23'0 0.0
2017-Sep-27 20:00N 47°40' W 122°23'0 0.0
2017-Sep-27 19:30N 47°40' W 122°23'0 0.0
2017-Sep-27 19:00N 47°40' W 122°23'0 0.0
2017-Sep-27 18:30N 47°40' W 122°23'0 0.0
2017-Sep-27 18:00N 47°40' W 122°23'0 0.0
2017-Sep-27 17:30N 47°40' W 122°23'0 0.0
2017-Sep-27 17:00N 47°40' W 122°23'0 0.0
2017-Sep-27 16:30N 47°40' W 122°23'0 0.0
2017-Sep-27 16:00N 47°40' W 122°23'0 0.0
2017-Sep-27 15:30N 47°40' W 122°23'0 0.0
2017-Sep-27 15:00N 47°40' W 122°23'0 0.0
2017-Sep-27 14:30N 47°40' W 122°23'0 0.0
2017-Sep-27 14:00N 47°40' W 122°23'0 0.0
2017-Sep-27 13:30N 47°40' W 122°23'0 0.0
2017-Sep-27 13:00N 47°40' W 122°23'0 0.0
2017-Sep-27 12:30N 47°40' W 122°23'0 0.0
2017-Sep-27 12:00N 47°40' W 122°23'0 0.0
2017-Sep-27 11:30N 47°40' W 122°23'0 0.0
2017-Sep-27 11:00N 47°40' W 122°23'0 0.0
2017-Sep-27 10:30N 47°40' W 122°23'0 0.0
2017-Sep-27 10:00N 47°40' W 122°23'0 0.0
2017-Sep-27 09:30N 47°40' W 122°23'0 0.0
2017-Sep-27 09:00N 47°40' W 122°23'0 0.0
2017-Sep-27 08:30N 47°40' W 122°23'0 0.0
2017-Sep-27 08:00N 47°40' W 122°23'0 0.0
2017-Sep-27 07:30N 47°40' W 122°23'0 0.0
2017-Sep-27 07:00N 47°40' W 122°23'0 0.0
2017-Sep-27 06:30N 47°40' W 122°23'0 0.0
2017-Sep-27 06:00N 47°40' W 122°23'0 0.0
2017-Sep-27 05:30N 47°40' W 122°23'0 0.0
2017-Sep-27 05:00N 47°40' W 122°23'0 0.0
2017-Sep-27 04:30N 47°40' W 122°23'0 0.0
2017-Sep-27 04:00N 47°40' W 122°23'0 0.0
2017-Sep-27 03:30N 47°40' W 122°23'0 0.0
2017-Sep-27 03:00N 47°40' W 122°23'0 0.0
2017-Sep-27 02:30N 47°40' W 122°23'0 0.0
2017-Sep-27 02:00N 47°40' W 122°23'0 0.0
2017-Sep-27 01:30N 47°40' W 122°23'0 0.0
2017-Sep-27 01:00N 47°40' W 122°23'0 0.0
2017-Sep-27 00:30N 47°40' W 122°23'0 0.0
2017-Sep-27 00:00N 47°40' W 122°23'0 0.0
2017-Sep-26 23:30N 47°40' W 122°23'0 0.0
2017-Sep-26 23:00N 47°40' W 122°23'0 0.0
2017-Sep-26 22:30N 47°40' W 122°23'0 0.0
2017-Sep-26 22:00N 47°40' W 122°23'0 0.0
2017-Sep-26 21:30N 47°40' W 122°23'0 0.0
2017-Sep-26 21:00N 47°40' W 122°23'0 0.0
2017-Sep-26 20:30N 47°40' W 122°23'0 0.0
2017-Sep-26 20:00N 47°40' W 122°23'0 0.0
2017-Sep-26 19:30N 47°40' W 122°23'0 0.0
2017-Sep-26 19:00N 47°40' W 122°23'0 0.0
2017-Sep-26 18:30N 47°40' W 122°23'0 0.0
2017-Sep-26 18:00N 47°40' W 122°23'0 0.0
2017-Sep-26 17:30N 47°40' W 122°23'0 0.0
2017-Sep-26 17:00N 47°40' W 122°23'0 0.0
2017-Sep-26 16:31N 47°40' W 122°23'0 0.0
2017-Sep-26 16:00N 47°40' W 122°23'0 0.0
2017-Sep-26 15:30N 47°40' W 122°23'0 0.0
2017-Sep-26 15:00N 47°40' W 122°23'0 0.0
2017-Sep-26 14:30N 47°40' W 122°23'0 0.0
2017-Sep-26 14:00N 47°40' W 122°23'0 0.0
2017-Sep-26 13:30N 47°40' W 122°23'0 0.0
2017-Sep-26 13:00N 47°40' W 122°23'0 0.0
2017-Sep-26 12:30N 47°40' W 122°23'0 0.0
2017-Sep-26 12:00N 47°40' W 122°23'0 0.0
2017-Sep-26 11:30N 47°40' W 122°23'0 0.0
2017-Sep-26 11:00N 47°40' W 122°23'0 0.0
2017-Sep-26 10:30N 47°40' W 122°23'0 0.0
2017-Sep-26 10:00N 47°40' W 122°23'0 0.0
2017-Sep-26 09:30N 47°40' W 122°23'0 0.0
2017-Sep-26 09:00N 47°40' W 122°23'0 0.0
2017-Sep-26 08:30N 47°40' W 122°23'0 0.0
2017-Sep-26 08:00N 47°40' W 122°23'0 0.0
2017-Sep-26 07:30N 47°40' W 122°23'0 0.0
2017-Sep-26 07:00N 47°40' W 122°23'  
Track history (hours):
 
Tides and Currents Weather Stations Pressure Air Temp Water Temp Dewpoint Dewpoint Depression Visibility Wind Speed Wind Dir Waves Ship Positions

Pinnacle

Owner: FV PINNACLE INC, SNOHOMISH, WA. More information available from US FCC via Universal Licensing System and Coast Guard Vessel Documentation Center.

Last reported at 2017-Oct-06 06:39 UTC. Time now 2017-Oct-19 16:54 UTC.
Position N 49°37' W 129°46'.
Warning: this ship's position is 13 days out of date.

Length 47 m; draft 16 m.

MMSI: 303072000.

Date/timePositionNaut miles runAvg speedWind from/ knotsBaromVisibWave heightAir tempDewpointWater temp
2017-Oct-06 06:39N 49°37' W 129°46'1 9.5
2017-Oct-06 06:31N 49°36' W 129°44'6 9.6
2017-Oct-06 05:51N 49°33' W 129°36'5 9.9
2017-Oct-06 05:19N 49°31' W 129°28'9 9.6
2017-Oct-06 04:21N 49°27' W 129°15'13 9.7
2017-Oct-06 02:58N 49°22' W 128°57'29 9.8
2017-Oct-05 23:59N 49°09' W 128°17'510.1
2017-Oct-05 23:30N 49°07' W 128°10'5 9.8
2017-Oct-05 23:00N 49°04' W 128°03'5 9.9
2017-Oct-05 22:30N 49°02' W 127°56'5 9.8
2017-Oct-05 22:00N 49°00' W 127°50'510.0
2017-Oct-05 21:31N 48°58' W 127°43'5 9.9
2017-Oct-05 21:00N 48°56' W 127°36'5 9.9
2017-Oct-05 20:30N 48°53' W 127°30'510.0
2017-Oct-05 20:00N 48°51' W 127°23'510.2
2017-Oct-05 19:29N 48°49' W 127°15'610.2
2017-Oct-05 18:55N 48°46' W 127°08'410.2
2017-Oct-05 18:30N 48°44' W 127°02'510.1
2017-Oct-05 18:01N 48°42' W 126°55'510.0
2017-Oct-05 17:31N 48°40' W 126°48'5 9.8
2017-Oct-05 17:00N 48°37' W 126°42'15 9.7
2017-Oct-05 15:31N 48°32' W 126°21'5 9.5
2017-Oct-05 15:00N 48°32' W 126°14'5 9.6
2017-Oct-05 14:31N 48°32' W 126°07'5 9.8
2017-Oct-05 14:00N 48°32' W 125°60'510.3
2017-Oct-05 13:31N 48°32' W 125°52'510.4
2017-Oct-05 13:00N 48°32' W 125°44'510.0
2017-Oct-05 12:30N 48°31' W 125°36'510.3
2017-Oct-05 12:00N 48°31' W 125°29'510.1
2017-Oct-05 11:30N 48°31' W 125°21'5 9.9
2017-Oct-05 11:00N 48°31' W 125°14'5 9.9
2017-Oct-05 10:30N 48°31' W 125°06'5 9.7
2017-Oct-05 10:00N 48°31' W 124°59'510.0
2017-Oct-05 09:30N 48°31' W 124°51'510.7
2017-Oct-05 09:00N 48°30' W 124°43'510.4
2017-Oct-05 08:30N 48°29' W 124°36'510.4
2017-Oct-05 08:00N 48°27' W 124°28'510.2
2017-Oct-05 07:30N 48°25' W 124°21'510.5
2017-Oct-05 07:00N 48°23' W 124°14'510.6
2017-Oct-05 06:30N 48°21' W 124°07'510.8
2017-Oct-05 06:00N 48°19' W 123°59'611.3
2017-Oct-05 05:30N 48°18' W 123°51'612.1
2017-Oct-05 05:00N 48°17' W 123°42'613.1
2017-Oct-05 04:30N 48°16' W 123°32'612.0
2017-Oct-05 04:00N 48°15' W 123°23'612.4
2017-Oct-05 03:30N 48°14' W 123°14'611.5
2017-Oct-05 02:59N 48°13' W 123°05'611.4
2017-Oct-05 02:30N 48°13' W 122°57'612.0
2017-Oct-05 01:58N 48°12' W 122°48'612.4
2017-Oct-05 01:28N 48°08' W 122°40'510.3
2017-Oct-05 01:00N 48°04' W 122°38'510.6
2017-Oct-05 00:30N 47°59' W 122°35'510.3
2017-Oct-05 00:00N 47°55' W 122°29'510.1
2017-Oct-04 23:30N 47°50' W 122°27'5 9.9
2017-Oct-04 23:00N 47°46' W 122°26'4 9.0
2017-Oct-04 22:30N 47°41' W 122°25'2 3.1
2017-Oct-04 22:00N 47°40' W 122°24'0 0.5
2017-Oct-04 21:30N 47°40' W 122°23'0 0.9
2017-Oct-04 21:00N 47°39' W 122°23'0 0.0
2017-Oct-04 20:30N 47°39' W 122°23'0 0.0
2017-Oct-04 20:00N 47°39' W 122°23'0 0.0
2017-Oct-04 19:30N 47°39' W 122°23'0 0.0
2017-Oct-04 19:00N 47°39' W 122°23'0 0.0
2017-Oct-04 18:30N 47°39' W 122°23'0 0.0
2017-Oct-04 18:00N 47°39' W 122°23'0 0.0
2017-Oct-04 17:30N 47°39' W 122°23'0 0.0
2017-Oct-04 17:00N 47°39' W 122°23'0 0.0
2017-Oct-04 16:30N 47°39' W 122°23'0 0.0
2017-Oct-04 16:00N 47°39' W 122°23'0 0.0
2017-Oct-04 15:30N 47°39' W 122°23'0 0.0
2017-Oct-04 15:00N 47°39' W 122°23'0 0.0
2017-Oct-04 14:30N 47°39' W 122°23'0 0.0
2017-Oct-04 14:00N 47°39' W 122°23'0 0.0
2017-Oct-04 13:30N 47°39' W 122°23'0 0.0
2017-Oct-04 13:00N 47°39' W 122°23'0 0.0
2017-Oct-04 12:30N 47°39' W 122°23'0 0.0
2017-Oct-04 12:00N 47°39' W 122°23'0 0.0
2017-Oct-04 11:30N 47°39' W 122°23'0 0.0
2017-Oct-04 11:00N 47°39' W 122°23'0 0.0
2017-Oct-04 10:30N 47°39' W 122°23'0 0.0
2017-Oct-04 10:00N 47°39' W 122°23'0 0.0
2017-Oct-04 09:30N 47°39' W 122°23'0 0.0
2017-Oct-04 09:00N 47°39' W 122°23'0 0.0
2017-Oct-04 08:30N 47°39' W 122°23'0 0.0
2017-Oct-04 08:00N 47°39' W 122°23'0 0.0
2017-Oct-04 07:30N 47°39' W 122°23'0 0.0
2017-Oct-04 07:00N 47°39' W 122°23'0 0.0
2017-Oct-04 06:30N 47°39' W 122°23'0 0.0
2017-Oct-04 06:00N 47°39' W 122°23'0 0.0
2017-Oct-04 05:30N 47°39' W 122°23'0 0.0
2017-Oct-04 05:00N 47°39' W 122°23'0 0.0
2017-Oct-04 04:30N 47°39' W 122°23'0 0.0
2017-Oct-04 04:00N 47°39' W 122°23'0 0.0
2017-Oct-04 03:30N 47°39' W 122°23'0 0.0
2017-Oct-04 03:00N 47°39' W 122°23'0 0.0
2017-Oct-04 02:30N 47°39' W 122°23'0 0.0
2017-Oct-04 02:00N 47°39' W 122°23'0 0.0
2017-Oct-04 01:30N 47°39' W 122°23'0 0.0
2017-Oct-04 01:00N 47°39' W 122°23'0 0.0
2017-Oct-04 00:30N 47°39' W 122°23'0 0.0
2017-Oct-04 00:00N 47°39' W 122°23'0 0.0
2017-Oct-03 23:30N 47°39' W 122°23'0 0.0
2017-Oct-03 23:00N 47°39' W 122°23'0 0.0
2017-Oct-03 22:30N 47°39' W 122°23'0 0.0
2017-Oct-03 22:00N 47°39' W 122°23'0 0.0
2017-Oct-03 21:30N 47°39' W 122°23'0 0.0
2017-Oct-03 21:00N 47°39' W 122°23'0 0.0
2017-Oct-03 20:30N 47°39' W 122°23'0 0.0
2017-Oct-03 20:00N 47°39' W 122°23'0 0.0
2017-Oct-03 19:30N 47°39' W 122°23'0 0.0
2017-Oct-03 19:00N 47°39' W 122°23'0 0.0
2017-Oct-03 18:30N 47°39' W 122°23'0 0.0
2017-Oct-03 18:00N 47°39' W 122°23'0 0.0
2017-Oct-03 17:30N 47°39' W 122°23'0 0.0
2017-Oct-03 17:00N 47°39' W 122°23'0 0.0
2017-Oct-03 16:30N 47°39' W 122°23'0 0.0
2017-Oct-03 16:00N 47°39' W 122°23'0 0.0
2017-Oct-03 15:30N 47°39' W 122°23'0 0.0
2017-Oct-03 15:00N 47°39' W 122°23'0 0.0
2017-Oct-03 14:01N 47°39' W 122°23'0 0.0
2017-Oct-03 13:30N 47°39' W 122°23'0 0.0
2017-Oct-03 13:00N 47°39' W 122°23'0 0.0
2017-Oct-03 12:30N 47°39' W 122°23'0 0.0
2017-Oct-03 12:00N 47°39' W 122°23'0 0.0
2017-Oct-03 11:30N 47°39' W 122°23'0 0.0
2017-Oct-03 11:00N 47°39' W 122°23'0 0.0
2017-Oct-03 10:30N 47°39' W 122°23'0 0.0
2017-Oct-03 10:00N 47°39' W 122°23'0 0.0
2017-Oct-03 09:30N 47°39' W 122°23'0 0.0
2017-Oct-03 09:00N 47°39' W 122°23'0 0.0
2017-Oct-03 08:30N 47°39' W 122°23'0 0.0
2017-Oct-03 08:00N 47°39' W 122°23'0 0.0
2017-Oct-03 07:30N 47°39' W 122°23'0 0.0
2017-Oct-03 07:00N 47°39' W 122°23'0 0.0
2017-Oct-03 06:30N 47°39' W 122°23'0 0.0
2017-Oct-03 06:00N 47°39' W 122°23'0 0.0
2017-Oct-03 05:30N 47°39' W 122°23'0 0.0
2017-Oct-03 05:00N 47°39' W 122°23'0 0.0
2017-Oct-03 04:30N 47°39' W 122°23'0 0.0
2017-Oct-03 04:00N 47°39' W 122°23'0 0.0
2017-Oct-03 03:30N 47°39' W 122°23'0 0.0
2017-Oct-03 03:00N 47°39' W 122°23'0 0.0
2017-Oct-03 02:30N 47°39' W 122°23'0 0.0
2017-Oct-03 02:00N 47°39' W 122°23'0 0.0
2017-Oct-03 01:30N 47°39' W 122°23'0 0.0
2017-Oct-03 01:00N 47°39' W 122°23'0 0.0
2017-Oct-03 00:30N 47°39' W 122°23'0 0.0
2017-Oct-03 00:00N 47°39' W 122°23'0 0.0
2017-Oct-02 23:30N 47°39' W 122°23'0 0.0
2017-Oct-02 23:00N 47°39' W 122°23'0 0.0
2017-Oct-02 22:30N 47°39' W 122°23'0 0.0
2017-Oct-02 22:00N 47°39' W 122°23'0 0.0
2017-Oct-02 21:30N 47°39' W 122°23'0 0.0
2017-Oct-02 21:00N 47°39' W 122°23'0 0.0
2017-Oct-02 20:30N 47°39' W 122°23'0 0.0
2017-Oct-02 20:00N 47°39' W 122°23'0 0.0
2017-Oct-02 19:30N 47°39' W 122°23'0 0.0
2017-Oct-02 19:00N 47°39' W 122°23'0 0.0
2017-Oct-02 18:30N 47°39' W 122°23'0 0.0
2017-Oct-02 18:00N 47°39' W 122°23'0 0.0
2017-Oct-02 17:30N 47°39' W 122°23'0 0.0
2017-Oct-02 17:00N 47°39' W 122°23'0 0.0
2017-Oct-02 16:30N 47°39' W 122°23'0 0.0
2017-Oct-02 16:00N 47°39' W 122°23'0 0.0
2017-Oct-02 15:30N 47°39' W 122°23'0 0.4
2017-Oct-02 15:00N 47°40' W 122°23'1 1.0
2017-Oct-02 14:30N 47°40' W 122°23'0 0.0
2017-Oct-02 14:00N 47°40' W 122°23'0 0.0
2017-Oct-02 13:30N 47°40' W 122°23'0 0.0
2017-Oct-02 13:00N 47°40' W 122°23'0 0.0
2017-Oct-02 12:30N 47°40' W 122°23'0 0.0
2017-Oct-02 12:00N 47°40' W 122°23'0 0.0
2017-Oct-02 11:30N 47°40' W 122°23'0 0.0
2017-Oct-02 11:00N 47°40' W 122°23'0 0.0
2017-Oct-02 10:30N 47°40' W 122°23'0 0.0
2017-Oct-02 10:00N 47°40' W 122°23'0 0.0
2017-Oct-02 09:30N 47°40' W 122°23'0 0.0
2017-Oct-02 09:00N 47°40' W 122°23'0 0.0
2017-Oct-02 08:30N 47°40' W 122°23'0 0.0
2017-Oct-02 08:00N 47°40' W 122°23'0 0.0
2017-Oct-02 07:30N 47°40' W 122°23'0 0.0
2017-Oct-02 07:00N 47°40' W 122°23'0 0.0
2017-Oct-02 06:30N 47°40' W 122°23'0 0.0
2017-Oct-02 06:00N 47°40' W 122°23'0 0.0
2017-Oct-02 05:30N 47°40' W 122°23'0 0.0
2017-Oct-02 05:00N 47°40' W 122°23'0 0.0
2017-Oct-02 04:30N 47°40' W 122°23'0 0.0
2017-Oct-02 04:00N 47°40' W 122°23'0 0.0
2017-Oct-02 03:30N 47°40' W 122°23'0 0.0
2017-Oct-02 03:00N 47°40' W 122°23'0 0.0
2017-Oct-02 02:30N 47°40' W 122°23'0 0.0
2017-Oct-02 02:00N 47°40' W 122°23'0 0.0
2017-Oct-02 01:30N 47°40' W 122°23'0 0.0
2017-Oct-02 01:00N 47°40' W 122°23'0 0.0
2017-Oct-02 00:30N 47°40' W 122°23'0 0.0
2017-Oct-02 00:00N 47°40' W 122°23'0 0.0
2017-Oct-01 23:30N 47°40' W 122°23'0 0.0
2017-Oct-01 23:00N 47°40' W 122°23'0 0.0
2017-Oct-01 22:30N 47°40' W 122°23'0 0.0
2017-Oct-01 22:00N 47°40' W 122°23'0 0.0
2017-Oct-01 21:30N 47°40' W 122°23'0 0.0
2017-Oct-01 21:00N 47°40' W 122°23'0 0.0
2017-Oct-01 20:30N 47°40' W 122°23'0 0.0
2017-Oct-01 20:00N 47°40' W 122°23'0 0.0
2017-Oct-01 19:30N 47°40' W 122°23'0 0.0
2017-Oct-01 19:00N 47°40' W 122°23'0 0.0
2017-Oct-01 18:30N 47°40' W 122°23'0 0.0
2017-Oct-01 18:00N 47°40' W 122°23'0 0.0
2017-Oct-01 17:30N 47°40' W 122°23'0 0.0
2017-Oct-01 17:00N 47°40' W 122°23'0 0.0
2017-Oct-01 16:30N 47°40' W 122°23'0 0.0
2017-Oct-01 16:00N 47°40' W 122°23'0 0.0
2017-Oct-01 15:30N 47°40' W 122°23'0 0.0
2017-Oct-01 15:00N 47°40' W 122°23'0 0.0
2017-Oct-01 14:30N 47°40' W 122°23'0 0.0
2017-Oct-01 14:00N 47°40' W 122°23'0 0.0
2017-Oct-01 13:30N 47°40' W 122°23'0 0.0
2017-Oct-01 13:00N 47°40' W 122°23'0 0.0
2017-Oct-01 12:30N 47°40' W 122°23'0 0.0
2017-Oct-01 12:00N 47°40' W 122°23'0 0.0
2017-Oct-01 11:30N 47°40' W 122°23'0 0.0
2017-Oct-01 11:00N 47°40' W 122°23'0 0.0
2017-Oct-01 10:30N 47°40' W 122°23'0 0.0
2017-Oct-01 10:00N 47°40' W 122°23'0 0.0
2017-Oct-01 09:30N 47°40' W 122°23'0 0.0
2017-Oct-01 09:00N 47°40' W 122°23'0 0.0
2017-Oct-01 08:30N 47°40' W 122°23'0 0.0
2017-Oct-01 08:00N 47°40' W 122°23'0 0.0
2017-Oct-01 07:30N 47°40' W 122°23'0 0.0
2017-Oct-01 07:00N 47°40' W 122°23'0 0.0
2017-Oct-01 06:30N 47°40' W 122°23'0 0.0
2017-Oct-01 06:00N 47°40' W 122°23'0 0.0
2017-Oct-01 05:30N 47°40' W 122°23'0 0.0
2017-Oct-01 05:00N 47°40' W 122°23'0 0.0
2017-Oct-01 04:30N 47°40' W 122°23'0 0.0
2017-Oct-01 04:00N 47°40' W 122°23'0 0.0
2017-Oct-01 03:30N 47°40' W 122°23'0 0.0
2017-Oct-01 03:00N 47°40' W 122°23'0 0.0
2017-Sep-30 02:00N 47°40' W 122°23'0 0.0
2017-Sep-30 01:30N 47°40' W 122°23'0 0.0
2017-Sep-30 01:00N 47°40' W 122°23'0 0.0
2017-Sep-30 00:30N 47°40' W 122°23'0 0.0
2017-Sep-30 00:00N 47°40' W 122°23'0 0.0
2017-Sep-29 23:30N 47°40' W 122°23'0 0.0
2017-Sep-29 23:00N 47°40' W 122°23'0 0.0
2017-Sep-29 22:30N 47°40' W 122°23'0 0.0
2017-Sep-29 22:00N 47°40' W 122°23'0 0.0
2017-Sep-29 21:30N 47°40' W 122°23'0 0.0
2017-Sep-29 21:00N 47°40' W 122°23'0 0.0
2017-Sep-29 20:30N 47°40' W 122°23'0 0.0
2017-Sep-29 20:00N 47°40' W 122°23'0 0.0
2017-Sep-29 19:30N 47°40' W 122°23'0 0.0
2017-Sep-29 19:00N 47°40' W 122°23'0 0.0
2017-Sep-29 18:30N 47°40' W 122°23'0 0.0
2017-Sep-29 18:01N 47°40' W 122°23'0 0.0
2017-Sep-29 17:30N 47°40' W 122°23'0 0.0
2017-Sep-29 17:00N 47°40' W 122°23'0 0.0
2017-Sep-29 16:30N 47°40' W 122°23'0 0.0
2017-Sep-29 16:00N 47°40' W 122°23'0 0.0
2017-Sep-29 15:30N 47°40' W 122°23'0 0.0
2017-Sep-29 15:00N 47°40' W 122°23'0 0.0
2017-Sep-29 14:30N 47°40' W 122°23'0 0.0
2017-Sep-29 14:00N 47°40' W 122°23'0 0.0
2017-Sep-29 13:30N 47°40' W 122°23'0 0.0
2017-Sep-29 13:00N 47°40' W 122°23'0 0.0
2017-Sep-29 12:30N 47°40' W 122°23'0 0.0
2017-Sep-29 12:00N 47°40' W 122°23'0 0.0
2017-Sep-29 11:30N 47°40' W 122°23'0 0.0
2017-Sep-29 11:00N 47°40' W 122°23'0 0.0
2017-Sep-29 10:30N 47°40' W 122°23'0 0.0
2017-Sep-29 10:00N 47°40' W 122°23'0 0.0
2017-Sep-29 09:30N 47°40' W 122°23'0 0.0
2017-Sep-29 09:00N 47°40' W 122°23'0 0.0
2017-Sep-29 08:30N 47°40' W 122°23'0 0.0
2017-Sep-29 08:00N 47°40' W 122°23'0 0.0
2017-Sep-29 07:30N 47°40' W 122°23'0 0.0
2017-Sep-29 07:00N 47°40' W 122°23'0 0.0
2017-Sep-29 06:30N 47°40' W 122°23'0 0.0
2017-Sep-29 06:00N 47°40' W 122°23'0 0.0
2017-Sep-29 05:30N 47°40' W 122°23'0 0.0
2017-Sep-29 05:00N 47°40' W 122°23'0 0.0
2017-Sep-29 04:30N 47°40' W 122°23'0 0.0
2017-Sep-29 04:00N 47°40' W 122°23'0 0.0
2017-Sep-29 03:30N 47°40' W 122°23'0 0.0
2017-Sep-29 03:00N 47°40' W 122°23'0 0.0
2017-Sep-29 02:30N 47°40' W 122°23'0 0.0
2017-Sep-29 02:00N 47°40' W 122°23'0 0.0
2017-Sep-29 01:30N 47°40' W 122°23'0 0.0
2017-Sep-29 01:00N 47°40' W 122°23'0 0.0
2017-Sep-29 00:30N 47°40' W 122°23'0 0.0
2017-Sep-29 00:00N 47°40' W 122°23'0 0.0
2017-Sep-28 23:30N 47°40' W 122°23'0 0.0
2017-Sep-28 23:00N 47°40' W 122°23'0 0.0
2017-Sep-28 22:30N 47°40' W 122°23'0 0.0
2017-Sep-28 22:00N 47°40' W 122°23'0 0.1
2017-Sep-28 21:30N 47°40' W 122°23'0 0.0
2017-Sep-28 21:00N 47°40' W 122°23'0 0.0
2017-Sep-28 20:30N 47°40' W 122°23'0 0.0
2017-Sep-28 20:00N 47°40' W 122°23'0 0.0
2017-Sep-28 19:30N 47°40' W 122°23'0 0.0
2017-Sep-28 19:00N 47°40' W 122°23'0 0.0
2017-Sep-28 18:30N 47°40' W 122°23'0 0.0
2017-Sep-28 18:00N 47°40' W 122°23'0 0.0
2017-Sep-28 17:30N 47°40' W 122°23'0 0.0
2017-Sep-28 17:00N 47°40' W 122°23'0 0.0
2017-Sep-28 16:30N 47°40' W 122°23'0 0.0
2017-Sep-28 16:01N 47°40' W 122°23'0 0.0
2017-Sep-28 15:30N 47°40' W 122°23'0 0.0
2017-Sep-28 15:00N 47°40' W 122°23'0 0.0
2017-Sep-28 14:30N 47°40' W 122°23'0 0.0
2017-Sep-28 14:00N 47°40' W 122°23'0 0.0
2017-Sep-28 13:30N 47°40' W 122°23'0 0.0
2017-Sep-28 13:00N 47°40' W 122°23'0 0.0
2017-Sep-28 12:30N 47°40' W 122°23'0 0.0
2017-Sep-28 12:00N 47°40' W 122°23'0 0.0
2017-Sep-28 11:30N 47°40' W 122°23'0 0.0
2017-Sep-28 11:00N 47°40' W 122°23'0 0.0
2017-Sep-28 10:30N 47°40' W 122°23'0 0.0
2017-Sep-28 10:00N 47°40' W 122°23'0 0.0
2017-Sep-28 09:30N 47°40' W 122°23'0 0.0
2017-Sep-28 09:00N 47°40' W 122°23'0 0.0
2017-Sep-28 08:30N 47°40' W 122°23'0 0.0
2017-Sep-28 08:00N 47°40' W 122°23'0 0.0
2017-Sep-28 07:30N 47°40' W 122°23'0 0.0
2017-Sep-28 07:00N 47°40' W 122°23'0 0.0
2017-Sep-28 06:30N 47°40' W 122°23'0 0.0
2017-Sep-28 06:00N 47°40' W 122°23'0 0.0
2017-Sep-28 05:30N 47°40' W 122°23'0 0.0
2017-Sep-28 05:00N 47°40' W 122°23'0 0.0
2017-Sep-28 04:30N 47°40' W 122°23'0 0.0
2017-Sep-28 04:00N 47°40' W 122°23'0 0.0
2017-Sep-28 03:30N 47°40' W 122°23'0 0.0
2017-Sep-28 03:00N 47°40' W 122°23'0 0.0
2017-Sep-28 02:30N 47°40' W 122°23'0 0.0
2017-Sep-28 02:00N 47°40' W 122°23'0 0.0
2017-Sep-28 01:30N 47°40' W 122°23'0 0.0
2017-Sep-28 01:00N 47°40' W 122°23'0 0.0
2017-Sep-28 00:30N 47°40' W 122°23'0 0.0
2017-Sep-28 00:00N 47°40' W 122°23'0 0.0
2017-Sep-27 23:30N 47°40' W 122°23'0 0.0
2017-Sep-27 23:00N 47°40' W 122°23'0 0.0
2017-Sep-27 22:30N 47°40' W 122°23'0 0.1
2017-Sep-27 22:00N 47°40' W 122°23'0 0.1
2017-Sep-27 21:30N 47°40' W 122°23'0 0.0
2017-Sep-27 21:00N 47°40' W 122°23'0 0.0
2017-Sep-27 20:30N 47°40' W 122°23'0 0.0
2017-Sep-27 20:00N 47°40' W 122°23'0 0.0
2017-Sep-27 19:30N 47°40' W 122°23'0 0.0
2017-Sep-27 19:00N 47°40' W 122°23'0 0.0
2017-Sep-27 18:30N 47°40' W 122°23'0 0.0
2017-Sep-27 18:00N 47°40' W 122°23'0 0.0
2017-Sep-27 17:30N 47°40' W 122°23'0 0.0
2017-Sep-27 17:00N 47°40' W 122°23'0 0.0
2017-Sep-27 16:30N 47°40' W 122°23'0 0.0
2017-Sep-27 16:00N 47°40' W 122°23'0 0.0
2017-Sep-27 15:30N 47°40' W 122°23'0 0.0
2017-Sep-27 15:00N 47°40' W 122°23'0 0.0
2017-Sep-27 14:30N 47°40' W 122°23'0 0.0
2017-Sep-27 14:00N 47°40' W 122°23'0 0.0
2017-Sep-27 13:30N 47°40' W 122°23'0 0.0
2017-Sep-27 13:00N 47°40' W 122°23'0 0.0
2017-Sep-27 12:30N 47°40' W 122°23'0 0.0
2017-Sep-27 12:00N 47°40' W 122°23'0 0.0
2017-Sep-27 11:30N 47°40' W 122°23'0 0.0
2017-Sep-27 11:00N 47°40' W 122°23'0 0.0
2017-Sep-27 10:30N 47°40' W 122°23'0 0.0
2017-Sep-27 10:00N 47°40' W 122°23'0 0.0
2017-Sep-27 09:30N 47°40' W 122°23'0 0.0
2017-Sep-27 09:00N 47°40' W 122°23'0 0.0
2017-Sep-27 08:30N 47°40' W 122°23'0 0.0
2017-Sep-27 08:00N 47°40' W 122°23'0 0.0
2017-Sep-27 07:30N 47°40' W 122°23'0 0.0
2017-Sep-27 07:00N 47°40' W 122°23'0 0.0
2017-Sep-27 06:30N 47°40' W 122°23'0 0.0
2017-Sep-27 06:00N 47°40' W 122°23'0 0.0
2017-Sep-27 05:30N 47°40' W 122°23'0 0.0
2017-Sep-27 05:00N 47°40' W 122°23'0 0.0
2017-Sep-27 04:30N 47°40' W 122°23'0 0.0
2017-Sep-27 04:00N 47°40' W 122°23'0 0.0
2017-Sep-27 03:30N 47°40' W 122°23'0 0.0
2017-Sep-27 03:00N 47°40' W 122°23'0 0.0
2017-Sep-27 02:30N 47°40' W 122°23'0 0.0
2017-Sep-27 02:00N 47°40' W 122°23'0 0.0
2017-Sep-27 01:30N 47°40' W 122°23'0 0.0
2017-Sep-27 01:00N 47°40' W 122°23'0 0.0
2017-Sep-27 00:30N 47°40' W 122°23'0 0.0
2017-Sep-27 00:00N 47°40' W 122°23'0 0.0
2017-Sep-26 23:30N 47°40' W 122°23'0 0.0
2017-Sep-26 23:00N 47°40' W 122°23'0 0.0
2017-Sep-26 22:30N 47°40' W 122°23'0 0.0
2017-Sep-26 22:00N 47°40' W 122°23'0 0.0
2017-Sep-26 21:30N 47°40' W 122°23'0 0.0
2017-Sep-26 21:00N 47°40' W 122°23'0 0.0
2017-Sep-26 20:30N 47°40' W 122°23'0 0.0
2017-Sep-26 20:00N 47°40' W 122°23'0 0.0
2017-Sep-26 19:30N 47°40' W 122°23'0 0.0
2017-Sep-26 19:00N 47°40' W 122°23'0 0.0
2017-Sep-26 18:30N 47°40' W 122°23'0 0.0
2017-Sep-26 18:00N 47°40' W 122°23'0 0.0
2017-Sep-26 17:30N 47°40' W 122°23'0 0.0
2017-Sep-26 17:00N 47°40' W 122°23'0 0.0
2017-Sep-26 16:31N 47°40' W 122°23'0 0.0
2017-Sep-26 16:00N 47°40' W 122°23'0 0.0
2017-Sep-26 15:30N 47°40' W 122°23'0 0.0
2017-Sep-26 15:00N 47°40' W 122°23'0 0.0
2017-Sep-26 14:30N 47°40' W 122°23'0 0.0
2017-Sep-26 14:00N 47°40' W 122°23'0 0.0
2017-Sep-26 13:30N 47°40' W 122°23'0 0.0
2017-Sep-26 13:00N 47°40' W 122°23'0 0.0
2017-Sep-26 12:30N 47°40' W 122°23'0 0.0
2017-Sep-26 12:00N 47°40' W 122°23'0 0.0
2017-Sep-26 11:30N 47°40' W 122°23'0 0.0
2017-Sep-26 11:00N 47°40' W 122°23'0 0.0
2017-Sep-26 10:30N 47°40' W 122°23'0 0.0
2017-Sep-26 10:00N 47°40' W 122°23'0 0.0
2017-Sep-26 09:30N 47°40' W 122°23'0 0.0
2017-Sep-26 09:00N 47°40' W 122°23'0 0.0
2017-Sep-26 08:30N 47°40' W 122°23'0 0.0
2017-Sep-26 08:00N 47°40' W 122°23'0 0.0
2017-Sep-26 07:30N 47°40' W 122°23'0 0.0
2017-Sep-26 07:00N 47°40' W 122°23'  

Dump ship's entire track history